createdAt,value
2023-01-21T00:01:04.558Z,-1.65
2023-01-21T00:03:31.721Z,-1.65
2023-01-21T00:05:58.777Z,-1.65
2023-01-21T00:08:27.101Z,-1.66
2023-01-21T00:10:55.343Z,-1.63
2023-01-21T00:13:22.644Z,-1.66
2023-01-21T00:15:49.764Z,-1.77
2023-01-21T00:18:16.854Z,-1.64
2023-01-21T00:20:45.622Z,-1.79
2023-01-21T00:23:12.899Z,-1.71
2023-01-21T00:25:40.155Z,-1.75
2023-01-21T00:28:07.254Z,-1.71
2023-01-21T00:30:34.307Z,-1.73
2023-01-21T00:33:01.386Z,-1.75
2023-01-21T00:35:28.447Z,-1.77
2023-01-21T00:37:56.158Z,-1.76
2023-01-21T00:40:23.251Z,-1.76
2023-01-21T00:42:50.277Z,-1.78
2023-01-21T00:45:17.530Z,-1.80
2023-01-21T00:47:44.586Z,-1.75
2023-01-21T00:50:11.631Z,-1.79
2023-01-21T00:52:38.785Z,-1.79
2023-01-21T00:55:06.434Z,-1.78
2023-01-21T00:57:33.706Z,-1.82
2023-01-21T01:00:00.937Z,-1.84
2023-01-21T01:02:27.964Z,-1.86
2023-01-21T01:04:55.180Z,-1.89
2023-01-21T01:07:22.282Z,-1.91
2023-01-21T01:09:49.309Z,-1.93
2023-01-21T01:12:16.425Z,-1.94
2023-01-21T01:14:43.422Z,-1.92
2023-01-21T01:17:10.979Z,-1.94
2023-01-21T01:19:37.979Z,-1.95
2023-01-21T01:22:04.977Z,-2.00
2023-01-21T01:24:32.105Z,-1.99
2023-01-21T01:26:59.119Z,-2.00
2023-01-21T01:29:26.472Z,-1.98
2023-01-21T01:31:53.521Z,-1.97
2023-01-21T01:34:20.523Z,-2.00
2023-01-21T01:36:49.489Z,-2.02
2023-01-21T01:39:16.487Z,-2.02
2023-01-21T01:41:43.647Z,-2.05
2023-01-21T01:44:48.002Z,-2.07
2023-01-21T01:47:15.778Z,-2.08
2023-01-21T01:49:43.119Z,-2.14
2023-01-21T01:52:13.078Z,-2.18
2023-01-21T01:54:45.742Z,-2.14
2023-01-21T01:57:15.855Z,-2.15
2023-01-21T01:59:43.436Z,-2.15
2023-01-21T02:02:14.961Z,-2.23
2023-01-21T02:04:47.079Z,-2.22
2023-01-21T02:07:15.800Z,-2.21
2023-01-21T02:09:42.980Z,-2.18
2023-01-21T02:12:10.255Z,-2.19
2023-01-21T02:14:42.804Z,-2.23
2023-01-21T02:17:31.074Z,-2.23
2023-01-21T02:20:41.966Z,-2.29
2023-01-21T02:23:23.086Z,-2.24
2023-01-21T02:26:33.662Z,-2.28
2023-01-21T02:29:09.863Z,-2.29
2023-01-21T02:31:54.093Z,-2.33
2023-01-21T02:34:42.648Z,-2.40
2023-01-21T02:37:43.897Z,-2.36
2023-01-21T02:40:21.883Z,-2.40
2023-01-21T02:43:01.133Z,-2.34
2023-01-21T02:45:38.674Z,-2.39
2023-01-21T02:48:17.022Z,-2.40
2023-01-21T02:50:50.514Z,-2.49
2023-01-21T02:53:29.072Z,-2.49
2023-01-21T02:56:00.221Z,-2.41
2023-01-21T02:58:30.780Z,-2.40
2023-01-21T03:01:06.456Z,-2.39
2023-01-21T03:04:07.563Z,-2.42
2023-01-21T03:06:56.047Z,-2.38
2023-01-21T03:09:26.377Z,-2.42
2023-01-21T03:11:56.318Z,-2.39
2023-01-21T03:14:48.124Z,-2.42
2023-01-21T03:17:41.609Z,-2.43
2023-01-21T03:20:26.535Z,-2.42
2023-01-21T03:22:59.526Z,-2.44
2023-01-21T03:25:31.179Z,-2.50
2023-01-21T03:28:00.600Z,-2.47
2023-01-21T03:30:29.923Z,-2.48
2023-01-21T03:32:58.424Z,-2.51
2023-01-21T03:35:37.565Z,-2.51
2023-01-21T03:38:16.388Z,-2.56
2023-01-21T03:40:48.762Z,-2.62
2023-01-21T03:43:15.792Z,-2.63
2023-01-21T03:46:04.178Z,-2.72
2023-01-21T03:48:41.484Z,-2.70
2023-01-21T03:51:26.246Z,-2.76
2023-01-21T03:53:57.826Z,-2.75
2023-01-21T03:56:26.347Z,-2.72
2023-01-21T03:58:53.879Z,-2.75
2023-01-21T04:01:21.287Z,-2.73
2023-01-21T04:03:48.510Z,-2.81
2023-01-21T04:06:23.303Z,-2.73
2023-01-21T04:08:51.146Z,-2.81
2023-01-21T04:11:18.345Z,-2.79
2023-01-21T04:13:45.433Z,-2.84
2023-01-21T04:16:12.686Z,-2.82
2023-01-21T04:18:39.929Z,-2.81
2023-01-21T04:21:07.228Z,-2.84
2023-01-21T04:23:34.308Z,-2.89
2023-01-21T04:26:01.369Z,-2.84
2023-01-21T04:28:28.393Z,-2.84
2023-01-21T04:30:55.442Z,-2.88
2023-01-21T04:33:22.543Z,-2.87
2023-01-21T04:35:49.601Z,-2.88
2023-01-21T04:38:17.003Z,-2.88
2023-01-21T04:40:44.137Z,-2.89
2023-01-21T04:43:11.188Z,-2.91
2023-01-21T04:45:38.273Z,-2.90
2023-01-21T04:48:05.437Z,-2.88
2023-01-21T04:50:32.505Z,-2.89
2023-01-21T04:52:59.524Z,-2.96
2023-01-21T04:55:26.589Z,-2.90
2023-01-21T04:57:53.680Z,-2.99
2023-01-21T05:00:20.930Z,-3.04
2023-01-21T05:02:48.035Z,-3.00
2023-01-21T05:05:15.172Z,-3.06
2023-01-21T05:07:42.250Z,-2.96
2023-01-21T05:10:15.911Z,-3.03
2023-01-21T05:12:43.480Z,-2.95
2023-01-21T05:15:12.114Z,-2.90
2023-01-21T05:17:39.192Z,-2.95
2023-01-21T05:20:06.895Z,-2.92
2023-01-21T05:22:33.881Z,-2.98
2023-01-21T05:25:00.995Z,-2.99
2023-01-21T05:27:28.142Z,-2.98
2023-01-21T05:29:56.860Z,-2.99
2023-01-21T05:32:24.434Z,-2.98
2023-01-21T05:34:51.491Z,-3.01
2023-01-21T05:37:18.524Z,-2.95
2023-01-21T05:39:45.678Z,-2.93
2023-01-21T05:42:13.212Z,-2.96
2023-01-21T05:44:40.260Z,-2.93
2023-01-21T05:47:08.758Z,-2.89
2023-01-21T05:49:35.816Z,-2.81
2023-01-21T05:52:02.982Z,-2.78
2023-01-21T05:54:30.296Z,-2.76
2023-01-21T05:56:57.435Z,-2.71
2023-01-21T05:59:24.503Z,-2.68
2023-01-21T06:01:51.507Z,-2.67
2023-01-21T06:04:18.591Z,-2.68
2023-01-21T06:06:45.630Z,-2.70
2023-01-21T06:09:13.217Z,-2.65
2023-01-21T06:11:42.054Z,-2.65
2023-01-21T06:14:09.163Z,-2.61
2023-01-21T06:16:36.245Z,-2.59
2023-01-21T06:19:03.311Z,-2.61
2023-01-21T06:21:30.298Z,-2.56
2023-01-21T06:23:57.485Z,-2.55
2023-01-21T06:26:27.022Z,-2.58
2023-01-21T06:28:57.124Z,-2.53
2023-01-21T06:31:24.430Z,-2.49
2023-01-21T06:33:52.108Z,-2.58
2023-01-21T06:36:19.379Z,-2.50
2023-01-21T06:38:46.445Z,-2.47
2023-01-21T06:41:13.539Z,-2.45
2023-01-21T06:43:41.247Z,-2.43
2023-01-21T06:46:08.570Z,-2.47
2023-01-21T06:48:35.708Z,-2.44
2023-01-21T06:51:03.213Z,-2.41
2023-01-21T06:53:30.269Z,-2.46
2023-01-21T06:55:57.336Z,-2.39
2023-01-21T06:58:24.529Z,-2.40
2023-01-21T07:00:51.613Z,-2.41
2023-01-21T07:03:18.614Z,-2.46
2023-01-21T07:05:45.612Z,-2.37
2023-01-21T07:08:13.192Z,-2.41
2023-01-21T07:10:40.413Z,-2.48
2023-01-21T07:13:07.496Z,-2.53
2023-01-21T07:15:34.457Z,-2.45
2023-01-21T07:18:01.570Z,-2.46
2023-01-21T07:20:28.624Z,-2.39
2023-01-21T07:22:56.023Z,-2.50
2023-01-21T07:25:23.115Z,-2.47
2023-01-21T07:27:50.176Z,-2.46
2023-01-21T07:30:19.421Z,-2.39
2023-01-21T07:32:47.495Z,-2.44
2023-01-21T07:35:15.316Z,-2.37
2023-01-21T07:37:43.204Z,-2.38
2023-01-21T07:40:11.613Z,-2.38
2023-01-21T07:42:39.198Z,-2.38
2023-01-21T07:45:07.039Z,-2.39
2023-01-21T07:47:34.213Z,-2.49
2023-01-21T07:50:04.893Z,-2.39
2023-01-21T07:52:32.508Z,-2.37
2023-01-21T07:54:59.571Z,-2.41
2023-01-21T07:57:26.622Z,-2.45
2023-01-21T07:59:53.667Z,-2.33
2023-01-21T08:02:20.931Z,-2.29
2023-01-21T08:04:48.132Z,-2.32
2023-01-21T08:07:15.176Z,-2.29
2023-01-21T08:09:42.919Z,-2.38
2023-01-21T08:12:10.626Z,-2.29
2023-01-21T08:14:38.729Z,-2.25
2023-01-21T08:17:05.740Z,-2.20
2023-01-21T08:19:32.806Z,-2.16
2023-01-21T08:21:59.846Z,-2.13
2023-01-21T08:24:26.895Z,-2.07
2023-01-21T08:26:57.974Z,-2.02
2023-01-21T08:29:26.095Z,-1.98
2023-01-21T08:31:53.516Z,-1.94
2023-01-21T08:34:20.678Z,-1.96
2023-01-21T08:36:47.736Z,-1.92
2023-01-21T08:39:18.046Z,-1.89
2023-01-21T08:41:45.951Z,-1.83
2023-01-21T08:44:13.346Z,-1.81
2023-01-21T08:46:40.459Z,-1.81
2023-01-21T08:49:07.651Z,-1.82
2023-01-21T08:51:34.718Z,-1.77
2023-01-21T08:54:01.747Z,-1.74
2023-01-21T08:56:28.763Z,-1.80
2023-01-21T08:58:57.697Z,-1.80
2023-01-21T09:01:26.206Z,-1.93
2023-01-21T09:03:57.929Z,-1.81
2023-01-21T09:06:27.428Z,-1.91
2023-01-21T09:08:55.344Z,-1.79
2023-01-21T09:11:23.766Z,-1.73
2023-01-21T09:13:50.916Z,-1.74
2023-01-21T09:16:21.038Z,-1.70
2023-01-21T09:18:49.259Z,-1.67
2023-01-21T09:21:16.402Z,-1.60
2023-01-21T09:23:44.446Z,-1.60
2023-01-21T09:26:17.154Z,-1.57
2023-01-21T09:28:46.771Z,-1.52
2023-01-21T09:31:16.851Z,-1.54
2023-01-21T09:33:46.512Z,-1.50
2023-01-21T09:36:16.222Z,-1.56
2023-01-21T09:38:44.600Z,-1.53
2023-01-21T09:41:46.168Z,-1.54
2023-01-21T09:44:31.174Z,-1.56
2023-01-21T09:47:04.518Z,-1.51
2023-01-21T09:50:08.633Z,-1.57
2023-01-21T09:52:44.294Z,-1.39
2023-01-21T09:55:25.355Z,-1.38
2023-01-21T09:58:16.626Z,-1.26
2023-01-21T10:00:52.546Z,-1.15
2023-01-21T10:03:47.619Z,-1.13
2023-01-21T10:06:21.629Z,-1.12
2023-01-21T10:09:00.318Z,-1.17
2023-01-21T10:11:53.732Z,-1.18
2023-01-21T10:14:55.983Z,-1.35
2023-01-21T10:17:31.798Z,-1.29
2023-01-21T10:20:21.967Z,-1.37
2023-01-21T10:23:28.291Z,-1.30
2023-01-21T10:25:59.052Z,-1.21
2023-01-21T10:28:30.507Z,-1.19
2023-01-21T10:31:08.598Z,-1.20
2023-01-21T10:33:35.833Z,-1.14
2023-01-21T10:36:17.435Z,-1.03
2023-01-21T10:38:53.422Z,-0.99
2023-01-21T10:41:50.094Z,-0.90
2023-01-21T10:44:26.088Z,-0.90
2023-01-21T10:47:14.710Z,-0.90
2023-01-21T10:50:19.181Z,-0.90
2023-01-21T10:52:50.471Z,-0.77
2023-01-21T10:55:26.364Z,-0.75
2023-01-21T10:58:28.970Z,-0.74
2023-01-21T11:01:01.225Z,-0.83
2023-01-21T11:03:47.325Z,-0.91
2023-01-21T11:06:17.901Z,-0.84
2023-01-21T11:08:49.631Z,-0.74
2023-01-21T11:11:28.039Z,-0.69
2023-01-21T11:13:56.623Z,-0.68
2023-01-21T11:16:45.558Z,-0.69
2023-01-21T11:19:21.644Z,-0.64
2023-01-21T11:22:04.245Z,-0.58
2023-01-21T11:24:41.937Z,-0.74
2023-01-21T11:27:23.213Z,-0.80
2023-01-21T11:29:50.677Z,-0.72
2023-01-21T11:32:21.893Z,-0.66
2023-01-21T11:34:51.850Z,-0.81
2023-01-21T11:37:24.973Z,-0.93
2023-01-21T11:39:59.095Z,-1.02
2023-01-21T11:42:26.797Z,-0.95
2023-01-21T11:45:01.371Z,-0.81
2023-01-21T11:47:36.294Z,-0.76
2023-01-21T11:50:35.736Z,-0.78
2023-01-21T11:53:11.694Z,-0.88
2023-01-21T11:55:46.529Z,-0.81
2023-01-21T11:58:25.058Z,-0.73
2023-01-21T12:00:56.548Z,-0.62
2023-01-21T12:03:37.399Z,-0.61
2023-01-21T12:06:07.311Z,-0.65
2023-01-21T12:08:39.503Z,-0.62
2023-01-21T12:11:08.079Z,-0.65
2023-01-21T12:13:47.983Z,-0.68
2023-01-21T12:16:30.449Z,-0.89
2023-01-21T12:19:22.151Z,-0.84
2023-01-21T12:22:07.217Z,-0.80
2023-01-21T12:24:36.996Z,-0.82
2023-01-21T12:27:32.613Z,-0.81
2023-01-21T12:30:21.508Z,-0.68
2023-01-21T12:32:56.718Z,-0.61
2023-01-21T12:35:28.102Z,-0.59
2023-01-21T12:38:01.963Z,-0.64
2023-01-21T12:40:36.968Z,-0.56
2023-01-21T12:43:13.208Z,-0.57
2023-01-21T12:45:49.262Z,-0.50
2023-01-21T12:48:29.320Z,-0.46
2023-01-21T12:51:25.040Z,-0.44
2023-01-21T12:54:16.977Z,-0.36
2023-01-21T12:56:50.767Z,-0.35
2023-01-21T12:59:29.044Z,-0.34
2023-01-21T13:02:14.495Z,-0.38
2023-01-21T13:04:51.439Z,-0.44
2023-01-21T13:07:42.073Z,-0.33
2023-01-21T13:10:27.213Z,-0.26
2023-01-21T13:13:06.369Z,-0.36
2023-01-21T13:15:36.076Z,-0.31
2023-01-21T13:18:13.151Z,-0.33
2023-01-21T13:20:47.643Z,-0.28
2023-01-21T13:23:26.558Z,-0.23
2023-01-21T13:25:56.775Z,-0.19
2023-01-21T13:28:42.066Z,-0.18
2023-01-21T13:31:28.611Z,-0.30
2023-01-21T13:34:17.071Z,-0.27
2023-01-21T13:37:06.678Z,-0.26
2023-01-21T13:39:46.373Z,-0.19
2023-01-21T13:42:23.534Z,-0.37
2023-01-21T13:45:30.569Z,-0.39
2023-01-21T13:48:17.613Z,-0.32
2023-01-21T13:50:53.785Z,-0.23
2023-01-21T13:54:12.279Z,-0.30
2023-01-21T13:57:00.372Z,-0.30
2023-01-21T13:59:50.146Z,-0.44
2023-01-21T14:02:32.441Z,-0.51
2023-01-21T14:05:12.107Z,-0.69
2023-01-21T14:07:47.306Z,-0.82
2023-01-21T14:10:42.146Z,-0.81
2023-01-21T14:13:27.927Z,-0.77
2023-01-21T14:15:57.850Z,-0.79
2023-01-21T14:18:43.147Z,-0.81
2023-01-21T14:21:10.427Z,-0.72
2023-01-21T14:24:18.227Z,-0.76
2023-01-21T14:26:48.363Z,-0.81
2023-01-21T14:29:29.937Z,-0.83
2023-01-21T14:32:04.931Z,-0.86
2023-01-21T14:34:43.407Z,-0.85
2023-01-21T14:37:30.630Z,-0.94
2023-01-21T14:40:18.716Z,-1.00
2023-01-21T14:42:53.332Z,-0.95
2023-01-21T14:45:23.465Z,-0.90
2023-01-21T14:47:58.564Z,-0.77
2023-01-21T14:50:47.123Z,-0.81
2023-01-21T14:53:24.078Z,-0.96
2023-01-21T14:56:33.728Z,-0.91
2023-01-21T14:59:04.780Z,-0.94
2023-01-21T15:01:43.632Z,-0.99
2023-01-21T15:04:41.144Z,-0.98
2023-01-21T15:07:19.028Z,-1.03
2023-01-21T15:09:54.263Z,-1.13
2023-01-21T15:12:27.197Z,-1.07
2023-01-21T15:15:00.776Z,-1.06
2023-01-21T15:17:47.222Z,-1.06
2023-01-21T15:20:43.002Z,-0.98
2023-01-21T15:23:29.866Z,-1.07
2023-01-21T15:26:20.340Z,-1.00
2023-01-21T15:28:49.569Z,-1.02
2023-01-21T15:31:23.615Z,-0.97
2023-01-21T15:34:01.859Z,-0.99
2023-01-21T15:36:38.171Z,-1.06
2023-01-21T15:39:16.435Z,-1.04
2023-01-21T15:41:57.119Z,-1.05
2023-01-21T15:44:32.066Z,-1.06
2023-01-21T15:47:07.334Z,-1.09
2023-01-21T15:49:53.557Z,-1.03
2023-01-21T15:53:02.104Z,-1.12
2023-01-21T15:56:17.951Z,-1.14
2023-01-21T15:59:08.533Z,-1.20
2023-01-21T16:01:38.112Z,-1.21
2023-01-21T16:04:49.696Z,-1.10
2023-01-21T16:07:26.827Z,-1.15
2023-01-21T16:10:27.178Z,-1.10
2023-01-21T16:13:19.814Z,-1.15
2023-01-21T16:16:20.432Z,-1.16
2023-01-21T16:18:56.318Z,-1.33
2023-01-21T16:21:32.018Z,-1.24
2023-01-21T16:24:05.845Z,-1.23
2023-01-21T16:26:33.298Z,-1.26
2023-01-21T16:29:00.451Z,-1.45
2023-01-21T16:31:27.894Z,-1.39
2023-01-21T16:33:55.739Z,-1.41
2023-01-21T16:36:23.044Z,-1.46
2023-01-21T16:38:50.255Z,-1.48
2023-01-21T16:41:24.072Z,-1.44
2023-01-21T16:44:00.280Z,-1.41
2023-01-21T16:46:38.191Z,-1.43
2023-01-21T16:49:14.025Z,-1.43
2023-01-21T16:51:50.685Z,-1.46
2023-01-21T16:54:17.829Z,-1.44
2023-01-21T16:57:00.238Z,-1.44
2023-01-21T16:59:42.085Z,-1.49
2023-01-21T17:02:22.325Z,-1.50
2023-01-21T17:04:49.708Z,-1.61
2023-01-21T17:07:21.858Z,-1.51
2023-01-21T17:10:17.176Z,-1.53
2023-01-21T17:12:55.451Z,-1.56
2023-01-21T17:15:36.198Z,-1.52
2023-01-21T17:18:05.865Z,-1.51
2023-01-21T17:20:42.068Z,-1.60
2023-01-21T17:23:29.558Z,-1.62
2023-01-21T17:26:19.370Z,-1.64
2023-01-21T17:28:53.708Z,-1.62
2023-01-21T17:31:26.434Z,-1.65
2023-01-21T17:34:14.740Z,-1.67
2023-01-21T17:36:50.555Z,-1.72
2023-01-21T17:39:57.756Z,-1.65
2023-01-21T17:42:29.752Z,-1.66
2023-01-21T17:45:04.564Z,-1.56
2023-01-21T17:47:35.573Z,-1.62
2023-01-21T17:50:22.108Z,-1.64
2023-01-21T17:52:52.373Z,-1.71
2023-01-21T17:55:19.515Z,-1.70
2023-01-21T17:57:46.676Z,-1.74
2023-01-21T18:00:36.852Z,-1.70
2023-01-21T18:03:04.134Z,-1.65
2023-01-21T18:05:31.439Z,-1.60
2023-01-21T18:07:58.856Z,-1.62
2023-01-21T18:10:29.450Z,-1.70
2023-01-21T18:12:58.163Z,-1.66
2023-01-21T18:15:26.627Z,-1.74
2023-01-21T18:18:00.122Z,-1.72
2023-01-21T18:20:29.493Z,-1.72
2023-01-21T18:22:58.751Z,-1.75
2023-01-21T18:25:27.378Z,-1.85
2023-01-21T18:27:55.525Z,-1.78
2023-01-21T18:30:27.777Z,-1.80
2023-01-21T18:32:56.942Z,-1.78
2023-01-21T18:35:29.390Z,-1.93
2023-01-21T18:37:57.095Z,-1.86
2023-01-21T18:40:24.332Z,-1.87
2023-01-21T18:42:55.643Z,-1.83
2023-01-21T18:45:27.463Z,-1.85
2023-01-21T18:47:56.709Z,-1.98
2023-01-21T18:50:26.222Z,-1.91
2023-01-21T18:52:53.806Z,-1.94
2023-01-21T18:55:25.222Z,-2.00
2023-01-21T18:57:52.882Z,-1.98
2023-01-21T19:00:29.090Z,-1.99
2023-01-21T19:02:58.698Z,-2.11
2023-01-21T19:05:47.612Z,-2.18
2023-01-21T19:08:21.803Z,-2.13
2023-01-21T19:10:48.905Z,-2.12
2023-01-21T19:13:16.158Z,-2.14
2023-01-21T19:15:45.255Z,-2.22
2023-01-21T19:18:14.926Z,-2.31
2023-01-21T19:20:43.157Z,-2.29
2023-01-21T19:23:17.522Z,-2.31
2023-01-21T19:25:51.226Z,-2.33
2023-01-21T19:28:18.785Z,-2.45
2023-01-21T19:30:46.374Z,-2.44
2023-01-21T19:33:13.460Z,-2.49
2023-01-21T19:35:44.806Z,-2.51
2023-01-21T19:38:15.122Z,-2.71
2023-01-21T19:40:43.067Z,-2.71
2023-01-21T19:43:14.417Z,-2.61
2023-01-21T19:45:43.023Z,-2.61
2023-01-21T19:48:15.798Z,-2.68
2023-01-21T19:50:43.814Z,-2.66
2023-01-21T19:53:15.333Z,-2.86
2023-01-21T19:55:44.184Z,-2.81
2023-01-21T19:58:20.548Z,-2.88
2023-01-21T20:00:49.677Z,-2.77
2023-01-21T20:03:18.557Z,-2.82
2023-01-21T20:05:47.940Z,-2.99
2023-01-21T20:08:25.188Z,-2.94
2023-01-21T20:10:52.345Z,-2.86
2023-01-21T20:13:19.606Z,-2.79
2023-01-21T20:15:48.262Z,-2.79
2023-01-21T20:18:22.767Z,-2.77
2023-01-21T20:20:50.323Z,-2.79
2023-01-21T20:23:19.657Z,-2.97
2023-01-21T20:25:51.037Z,-3.10
2023-01-21T20:28:51.133Z,-3.03
2023-01-21T20:31:18.901Z,-2.98
2023-01-21T20:33:46.376Z,-2.89
2023-01-21T20:36:22.735Z,-2.95
2023-01-21T20:38:50.198Z,-3.05
2023-01-21T20:41:17.400Z,-3.01
2023-01-21T20:43:44.646Z,-2.98
2023-01-21T20:46:14.701Z,-2.93
2023-01-21T20:48:43.874Z,-2.96
2023-01-21T20:51:12.154Z,-2.98
2023-01-21T20:53:39.633Z,-2.90
2023-01-21T20:56:23.344Z,-2.87
2023-01-21T20:58:50.638Z,-2.95
2023-01-21T21:01:20.183Z,-2.86
2023-01-21T21:03:48.157Z,-2.87
2023-01-21T21:06:19.049Z,-3.03
2023-01-21T21:08:47.013Z,-2.98
2023-01-21T21:11:15.486Z,-3.07
2023-01-21T21:13:43.477Z,-3.09
2023-01-21T21:16:21.853Z,-3.10
2023-01-21T21:18:49.403Z,-3.09
2023-01-21T21:21:17.209Z,-3.26
2023-01-21T21:23:47.451Z,-3.31
2023-01-21T21:26:33.439Z,-3.21
2023-01-21T21:29:00.617Z,-3.19
2023-01-21T21:31:32.764Z,-3.23
2023-01-21T21:34:00.347Z,-3.21
2023-01-21T21:36:27.438Z,-3.27
2023-01-21T21:38:57.300Z,-3.21
2023-01-21T21:41:44.927Z,-3.22
2023-01-21T21:44:13.606Z,-3.21
2023-01-21T21:46:59.684Z,-3.40
2023-01-21T21:49:27.548Z,-3.27
2023-01-21T21:51:54.962Z,-3.22
2023-01-21T21:54:23.509Z,-3.23
2023-01-21T21:56:50.564Z,-3.21
2023-01-21T21:59:17.644Z,-3.23
2023-01-21T22:01:44.826Z,-3.17
2023-01-21T22:04:12.291Z,-3.16
2023-01-21T22:06:39.580Z,-3.21
2023-01-21T22:09:07.444Z,-3.25
2023-01-21T22:11:34.652Z,-3.23
2023-01-21T22:14:04.016Z,-3.27
2023-01-21T22:16:32.363Z,-3.16
2023-01-21T22:19:01.090Z,-3.25
2023-01-21T22:21:31.828Z,-3.30
2023-01-21T22:23:59.849Z,-3.33
2023-01-21T22:26:28.529Z,-3.35
2023-01-21T22:28:56.604Z,-3.40
2023-01-21T22:31:28.904Z,-3.37
2023-01-21T22:33:57.574Z,-3.43
2023-01-21T22:36:26.857Z,-3.48
2023-01-21T22:38:57.043Z,-3.46
2023-01-21T22:41:25.383Z,-3.44
2023-01-21T22:43:53.309Z,-3.44
2023-01-21T22:46:30.053Z,-3.42
2023-01-21T22:48:57.626Z,-3.36
2023-01-21T22:51:25.339Z,-3.38
2023-01-21T22:53:53.310Z,-3.34
2023-01-21T22:56:28.184Z,-3.38
2023-01-21T22:59:07.406Z,-3.39
2023-01-21T23:01:36.400Z,-3.40
2023-01-21T23:04:03.509Z,-3.47
2023-01-21T23:06:30.641Z,-3.47
2023-01-21T23:08:57.700Z,-3.50
2023-01-21T23:11:25.211Z,-3.47
2023-01-21T23:13:57.292Z,-3.50
2023-01-21T23:16:25.005Z,-3.58
2023-01-21T23:18:52.227Z,-3.57
2023-01-21T23:21:21.323Z,-3.56
2023-01-21T23:23:49.416Z,-3.55
2023-01-21T23:26:19.262Z,-3.54
2023-01-21T23:28:46.562Z,-3.56
2023-01-21T23:31:17.197Z,-3.55
2023-01-21T23:33:44.518Z,-3.52
2023-01-21T23:36:15.757Z,-3.51
2023-01-21T23:38:45.785Z,-3.52
2023-01-21T23:41:16.812Z,-3.51
2023-01-21T23:43:44.121Z,-3.51
2023-01-21T23:46:16.338Z,-3.46
2023-01-21T23:48:43.875Z,-3.39
2023-01-21T23:51:15.499Z,-3.36
2023-01-21T23:53:44.020Z,-3.26
2023-01-21T23:56:19.391Z,-3.21
2023-01-21T23:58:46.587Z,-3.08
